»·PEaware :: WAT169 KSAN-KLAS

WAT169 :: KSAN-KLAS

FLIGHT INFORMATION

Flight Status: Arrived
Operator:
Walker Air Transport
More flights by this operator :: More flights under this callsign
Pilot: Marty P. (27464)
Aircraft: BOEING 737-800
(B738)
More flights by this aircraft type
Origin: KSAN San Diego Intl-Lindbergh
United States
Destination: KLAS McCarran Intl
United States
More flights between these airports :: More routes between these airports
Route: +PADRZ2 CHKNN SEBBY YELAH MISEN KEPEC6
File this flight plan on PilotEdge
Remarks:
Altitude:
(Current/Filed)
27,000ft
Speed:
(Current/Filed)
470kts
Departed: 21-Jun-20 09:40 AM
Arrived: 21-Jun-20 10:33 AM
Distance/Time
Traveled:
224nm/0:52
Distance/Time
To Go:
Arrived

Flight Plot

Page will automatically refresh every two minutes.

Flight plan parsing failed; only flown route is shown


Map Options




Map Legend


Flown Route
Filed Route
Departure Airport
Arrival Airport
Navaid (VOR, NDB)
Fix

Horizontal Profiles

Position Reports

Time Latitude Longitude Heading Altitude Ground
Speed
21-Jun-20 09:16 32.733007 -117.199143 93 27ft 0kts
21-Jun-20 09:17 32.733007 -117.199143 93 27ft 0kts
21-Jun-20 09:18 32.733007 -117.199143 93 27ft 0kts
21-Jun-20 09:19 32.733007 -117.199143 93 27ft 0kts
21-Jun-20 09:20 32.733007 -117.199143 93 27ft 0kts
21-Jun-20 09:21 32.733007 -117.199143 93 27ft 0kts
21-Jun-20 09:22 32.733007 -117.199143 93 27ft 0kts
21-Jun-20 09:23 32.733007 -117.199143 93 27ft 0kts
21-Jun-20 09:24 32.733007 -117.199143 93 27ft 0kts
21-Jun-20 09:25 32.733007 -117.199143 93 27ft 0kts
21-Jun-20 09:26 32.733007 -117.199143 93 27ft 0kts
21-Jun-20 09:27 32.733007 -117.199143 93 27ft 0kts
21-Jun-20 09:28 32.733007 -117.199143 93 27ft 0kts
21-Jun-20 09:29 32.733025 -117.199478 93 27ft 2kts
21-Jun-20 09:30 32.732887 -117.199999 12 27ft 1kts
21-Jun-20 09:31 32.732822 -117.200012 12 27ft 0kts
21-Jun-20 09:33 32.732824 -117.200012 12 27ft 0kts
21-Jun-20 09:34 32.734650 -117.198469 104 27ft 13kts
21-Jun-20 09:35 32.733201 -117.192469 106 27ft 22kts
21-Jun-20 09:36 32.731578 -117.185770 106 27ft 19kts
21-Jun-20 09:37 32.730174 -117.179978 105 27ft 16kts
21-Jun-20 09:38 32.729526 -117.176678 74 27ft 0kts
21-Jun-20 09:39 32.730422 -117.176775 291 27ft 17kts
21-Jun-20 09:40 32.738841 -117.210894 287 909ft 178kts
21-Jun-20 09:41 32.773435 -117.269122 301 3749ft 239kts
21-Jun-20 09:42 32.810512 -117.335997 308 7247ft 251kts
21-Jun-20 09:43 32.854542 -117.403505 307 10445ft 265kts
21-Jun-20 09:44 32.905554 -117.482596 307 11619ft 348kts
21-Jun-20 09:45 32.967915 -117.579839 307 13960ft 377kts
21-Jun-20 09:46 33.031996 -117.679882 307 16473ft 391kts
21-Jun-20 09:46 33.094056 -117.760105 318 18436ft 401kts
21-Jun-20 09:48 33.193437 -117.861408 319 20858ft 416kts
21-Jun-20 09:49 33.280479 -117.946512 320 24289ft 385kts
21-Jun-20 09:49 33.350021 -118.014298 320 25942ft 389kts
21-Jun-20 09:51 33.447855 -118.110009 320 27094ft 405kts
21-Jun-20 09:52 33.538826 -118.197282 325 27077ft 432kts
21-Jun-20 09:52 33.633693 -118.224968 18 27062ft 450kts
21-Jun-20 09:54 33.743337 -118.108197 45 27059ft 469kts
21-Jun-20 09:55 33.834989 -117.994244 45 27059ft 480kts
21-Jun-20 09:55 33.911966 -117.898355 45 27061ft 485kts
21-Jun-20 09:56 34.005424 -117.781791 45 27064ft 484kts
21-Jun-20 09:57 34.098819 -117.665172 45 27064ft 485kts
21-Jun-20 09:58 34.192466 -117.548106 44 27064ft 488kts
21-Jun-20 09:59 34.286679 -117.430202 44 27064ft 490kts
21-Jun-20 10:00 34.380187 -117.313044 45 27064ft 490kts
21-Jun-20 10:01 34.474812 -117.194356 45 27064ft 491kts
21-Jun-20 10:02 34.569363 -117.075628 44 27070ft 491kts
21-Jun-20 10:03 34.664039 -116.956609 44 27102ft 490kts
21-Jun-20 10:04 34.758492 -116.837733 44 27110ft 489kts
21-Jun-20 10:05 34.852290 -116.719527 44 27034ft 467kts
21-Jun-20 10:06 34.941373 -116.607168 44 27009ft 465kts
21-Jun-20 10:07 35.030377 -116.494758 44 26415ft 449kts
21-Jun-20 10:08 35.113786 -116.389394 43 24023ft 433kts
21-Jun-20 10:09 35.199014 -116.282900 44 24008ft 446kts
21-Jun-20 10:10 35.282981 -116.177633 44 21778ft 424kts
21-Jun-20 10:11 35.363104 -116.076874 44 19305ft 403kts
21-Jun-20 10:12 35.440435 -115.979248 44 18345ft 403kts
21-Jun-20 10:13 35.517135 -115.882134 45 16167ft 404kts
21-Jun-20 10:14 35.592794 -115.786065 45 14073ft 372kts
21-Jun-20 10:15 35.655942 -115.705870 46 13263ft 292kts
21-Jun-20 10:16 35.714777 -115.630093 47 13044ft 312kts
21-Jun-20 10:17 35.788013 -115.576053 11 13045ft 315kts
21-Jun-20 10:18 35.875537 -115.568854 2 13041ft 315kts
21-Jun-20 10:19 35.959839 -115.548726 35 13021ft 313kts
21-Jun-20 10:20 36.004250 -115.461688 70 11778ft 302kts
21-Jun-20 10:21 36.028625 -115.366240 86 10977ft 276kts
21-Jun-20 10:22 36.023992 -115.275895 96 9959ft 269kts
21-Jun-20 10:23 36.017317 -115.183690 95 8837ft 272kts
21-Jun-20 10:24 36.011637 -115.091815 95 8034ft 256kts
21-Jun-20 10:25 36.007069 -115.007890 95 8094ft 225kts
21-Jun-20 10:26 36.003292 -114.931119 94 5850ft 222kts
21-Jun-20 10:27 36.037616 -114.900613 332 5046ft 196kts
21-Jun-20 10:28 36.072728 -114.945362 275 5034ft 192kts
21-Jun-20 10:29 36.073629 -115.004581 268 4155ft 167kts
21-Jun-20 10:30 36.073655 -115.061133 268 3250ft 163kts
21-Jun-20 10:31 36.073654 -115.117171 270 2371ft 166kts
21-Jun-20 10:32 36.074449 -115.149928 299 2191ft 11kts
21-Jun-20 10:33 36.076509 -115.152000 333 2191ft 20kts

Navigation Log

Ident Type
Flight plan parsing failed, navigation log unavailable